Terminal Aerodrome Forecast
Issued by NWS

Current Version | Previous Version | Text Only | Print | Product List | Glossary Off
Versions: 1 2 3 4 5 6 7 8 9 10 11 12 13 14 15 16 17 18 19 20 21 22 23 24 25 26

000
FTUS41 KRLX 202100 AAA
TAFCKB
TAF AMD
KCKB 202101Z 2021/2118 VRB03KT P6SM VCSH FEW035 FEW070 BKN120
     FM202300 VRB03KT P6SM SCT040
     FM210700 00000KT 4SM BR SCT040
     FM210900 00000KT 2SM BR SCT035
     FM211000 00000KT 1/2SM FG BKN001
     FM211200 00000KT 3SM BR SCT001
     FM211300 VRB03KT P6SM SCT040=

USA.gov is the U.S. government's official web portal to all federal, state and local government web resources and services.